^^
Station Historical Data
 
Daily Summary for January 20, 2018 Units:  Metric    English   Both
« Previous Day
Next Day »
Daily Weekly Monthly Yearly Custom
  Current: High: Low: Average:
Temperature: 0.7 °C 0.7 °C -3.2 °C -1.7 °C
Dew Point: -0.9 °C -0.8 °C -4.6 °C -2.9 °C
Humidity: 89 % 93 % 89 % 91 %
Wind Speed: 11.3 km/h 11.3 km/h 0 km/h 2.1 km/h
Wind Gust: 24.1 km/h 29 km/h - -
Wind:NW - - West
Pressure: 998.9 hPa 1001.9 hPa 996.8 hPa -
Precipitation: 0 mm      
Historical Graphs
 
 
Tabular Data for January 20, 2018
Time Temperature Dew Point Pressure Wind Wind Speed Wind Gust Humidity Rainfall Rate (Hourly) solar Conditions
00:04 -2.8 °C -4.1 °C 1001.9 hPa Calm   3.2 km/h 91 % 0 mm WeatherDisplay:10.37 W/m2 OVC
00:09 -2.9 °C -4.2 °C 1001.9 hPa WSW 1.6 km/h 8 km/h 91 % 0 mm WeatherDisplay:10.37 W/m2 OVC
00:14 -2.9 °C -4.4 °C 1001.6 hPa Calm   1.6 km/h 90 % 0 mm WeatherDisplay:10.37 W/m2 BKN
00:19 -3 °C -4.4 °C 1001.6 hPa Calm   1.6 km/h 90 % 0 mm WeatherDisplay:10.37 W/m2 BKN
00:24 -3.1 °C -4.3 °C 1001.6 hPa Calm   8 km/h 91 % 0 mm WeatherDisplay:10.37 W/m2 BKN
00:29 -3.1 °C -4.5 °C 1001.2 hPa Calm   3.2 km/h 90 % 0 mm WeatherDisplay:10.37 W/m2 BKN
00:34 -3.1 °C -4.4 °C 1001.2 hPa WSW 1.6 km/h 6.4 km/h 91 % 0 mm WeatherDisplay:10.37 W/m2 BKN
00:39 -3.2 °C -4.4 °C 1001.2 hPa Calm   3.2 km/h 91 % 0 mm WeatherDisplay:10.37 W/m2 BKN
00:44 -3.2 °C -4.4 °C 1001.2 hPa Calm   3.2 km/h 91 % 0 mm WeatherDisplay:10.37 W/m2 BKN
00:49 -3.2 °C -4.6 °C 1001.2 hPa WSW 1.6 km/h 8 km/h 90 % 0 mm WeatherDisplay:10.37 W/m2 BKN
00:54 -3.2 °C -4.5 °C 1000.9 hPa Calm   6.4 km/h 91 % 0 mm WeatherDisplay:10.37 W/m2 BKN
00:59 -3.2 °C -4.5 °C 1001.2 hPa West 1.6 km/h 8 km/h 91 % 0 mm WeatherDisplay:10.37 W/m2 BKN
01:09 -3.2 °C -4.5 °C 1000.9 hPa West 1.6 km/h 11.3 km/h 91 % 0 mm WeatherDisplay:10.37 W/m2 BKN
01:14 -3.2 °C -4.5 °C 1000.9 hPa West 1.6 km/h 8 km/h 91 % 0 mm WeatherDisplay:10.37 W/m2 BKN
01:19 -3.2 °C -4.4 °C 1000.9 hPa West 1.6 km/h 6.4 km/h 91 % 0 mm WeatherDisplay:10.37 W/m2 BKN
01:24 -3.2 °C -4.4 °C 1000.9 hPa Calm   4.8 km/h 91 % 0 mm WeatherDisplay:10.37 W/m2 BKN
01:29 -3.1 °C -4.4 °C 1000.9 hPa Calm   6.4 km/h 91 % 0 mm WeatherDisplay:10.37 W/m2 BKN
01:34 -3.1 °C -4.3 °C 1000.6 hPa Calm   6.4 km/h 91 % 0 mm WeatherDisplay:10.37 W/m2 BKN
01:39 -3.1 °C -4.3 °C 1000.2 hPa Calm   4.8 km/h 91 % 0 mm WeatherDisplay:10.37 W/m2 BKN
01:44 -3 °C -4.3 °C 1000.2 hPa Calm   3.2 km/h 91 % 0 mm WeatherDisplay:10.37 W/m2 BKN
01:49 -2.9 °C -4.2 °C 1000.2 hPa Calm   6.4 km/h 91 % 0 mm WeatherDisplay:10.37 W/m2 BKN
01:59 -2.9 °C -4.2 °C 999.9 hPa Calm   4.8 km/h 91 % 0 mm WeatherDisplay:10.37 W/m2 BKN
02:04 -2.9 °C -4.2 °C 999.5 hPa Calm     91 % 0 mm WeatherDisplay:10.37 W/m2 BKN
02:09 -2.8 °C -4.1 °C 999.5 hPa Calm   6.4 km/h 91 % 0 mm WeatherDisplay:10.37 W/m2 BKN
02:14 -2.8 °C -4.1 °C 999.5 hPa Calm   1.6 km/h 91 % 0 mm WeatherDisplay:10.37 W/m2 OVC
02:19 -2.8 °C -4.1 °C 999.5 hPa Calm   4.8 km/h 91 % 0 mm WeatherDisplay:10.37 W/m2 OVC
02:24 -2.8 °C -4.1 °C 999.5 hPa Calm   4.8 km/h 91 % 0 mm WeatherDisplay:10.37 W/m2 OVC
02:29 -2.8 °C -4.1 °C 999.9 hPa Calm   4.8 km/h 91 % 0 mm WeatherDisplay:10.37 W/m2 OVC
02:34 -2.8 °C -4.1 °C 999.9 hPa Calm   6.4 km/h 91 % 0 mm WeatherDisplay:10.37 W/m2 OVC
02:39 -2.8 °C -4.1 °C 999.9 hPa Calm   8 km/h 91 % 0 mm WeatherDisplay:10.37 W/m2 OVC
02:44 -2.8 °C -4.1 °C 999.2 hPa Calm   8 km/h 91 % 0 mm WeatherDisplay:10.37 W/m2 OVC
02:49 -2.8 °C -4.1 °C 999.2 hPa Calm   4.8 km/h 91 % 0 mm WeatherDisplay:10.37 W/m2 OVC
02:54 -2.8 °C -4.1 °C 998.9 hPa WSW 1.6 km/h 4.8 km/h 91 % 0 mm WeatherDisplay:10.37 W/m2 OVC
02:59 -2.8 °C -4.1 °C 998.5 hPa Calm   1.6 km/h 91 % 0 mm WeatherDisplay:10.37 W/m2 OVC
03:04 -2.8 °C -4.1 °C 998.5 hPa Calm   3.2 km/h 91 % 0 mm WeatherDisplay:10.37 W/m2 OVC
03:09 -2.8 °C -4.1 °C 998.2 hPa Calm   6.4 km/h 91 % 0 mm WeatherDisplay:10.37 W/m2 OVC
03:14 -2.7 °C -4 °C 998.2 hPa Calm     91 % 0 mm WeatherDisplay:10.37 W/m2 OVC
03:19 -2.7 °C -4 °C 998.2 hPa Calm   3.2 km/h 91 % 0 mm WeatherDisplay:10.37 W/m2 OVC
03:24 -2.7 °C -4 °C 998.2 hPa Calm   6.4 km/h 91 % 0 mm WeatherDisplay:10.37 W/m2 OVC
03:29 -2.7 °C -4 °C 997.9 hPa Calm   1.6 km/h 91 % 0 mm WeatherDisplay:10.37 W/m2 OVC
03:34 -2.7 °C -3.9 °C 998.2 hPa Calm   3.2 km/h 91 % 0 mm WeatherDisplay:10.37 W/m2 OVC
03:39 -2.6 °C -3.9 °C 997.9 hPa Calm   4.8 km/h 91 % 0 mm WeatherDisplay:10.37 W/m2 OVC
03:44 -2.6 °C -3.9 °C 997.9 hPa Calm   1.6 km/h 91 % 0 mm WeatherDisplay:10.37 W/m2 OVC
03:54 -2.6 °C -3.7 °C 997.2 hPa Calm   3.2 km/h 92 % 0 mm WeatherDisplay:10.37 W/m2 OVC
03:59 -2.5 °C -3.6 °C 997.5 hPa West 1.6 km/h 4.8 km/h 92 % 0 mm WeatherDisplay:10.37 W/m2 OVC
04:04 -2.4 °C -3.6 °C 997.5 hPa West 3.2 km/h 8 km/h 92 % 0 mm WeatherDisplay:10.37 W/m2 OVC
04:09 -2.4 °C -3.5 °C 997.5 hPa Calm   4.8 km/h 92 % 0 mm WeatherDisplay:10.37 W/m2 OVC
04:14 -2.3 °C -3.4 °C 997.5 hPa Calm   6.4 km/h 92 % 0 mm WeatherDisplay:10.37 W/m2 OVC
04:19 -2.3 °C -3.4 °C 997.5 hPa Calm   8 km/h 92 % 0 mm WeatherDisplay:10.37 W/m2 OVC
04:24 -2.2 °C -3.3 °C 997.5 hPa Calm   6.4 km/h 92 % 0 mm WeatherDisplay:10.37 W/m2 OVC
04:29 -2.1 °C -3.1 °C 997.2 hPa WNW 3.2 km/h 9.7 km/h 93 % 0 mm WeatherDisplay:10.37 W/m2 OVC
04:34 -1.9 °C -2.9 °C 997.2 hPa WSW 3.2 km/h 12.9 km/h 93 % 0 mm WeatherDisplay:10.37 W/m2 OVC
04:39 -1.8 °C -2.8 °C 996.8 hPa Calm   11.3 km/h 93 % 0 mm WeatherDisplay:10.37 W/m2 OVC
04:44 -1.6 °C -2.6 °C 996.8 hPa Calm   19.3 km/h 93 % 0 mm WeatherDisplay:10.37 W/m2 OVC
04:49 -1.4 °C -2.4 °C 997.2 hPa West 4.8 km/h 16.1 km/h 93 % 0 mm WeatherDisplay:10.37 W/m2 OVC
04:59 -1.1 °C -2.1 °C 997.2 hPa West 3.2 km/h 19.3 km/h 93 % 0 mm WeatherDisplay:10.37 W/m2 OVC
05:04 -0.9 °C -1.9 °C 997.2 hPa WNW 8 km/h 20.9 km/h 93 % 0 mm WeatherDisplay:10.37 W/m2 OVC
05:09 -0.7 °C -1.7 °C 996.8 hPa West 3.2 km/h 19.3 km/h 93 % 0 mm WeatherDisplay:10.37 W/m2 OVC
05:14 -0.6 °C -1.6 °C 997.2 hPa WSW 3.2 km/h 12.9 km/h 93 % 0 mm WeatherDisplay:10.37 W/m2 OVC
05:19 -0.4 °C -1.4 °C 997.5 hPa WSW 4.8 km/h 16.1 km/h 93 % 0 mm WeatherDisplay:10.37 W/m2 OVC
05:24 -0.3 °C -1.3 °C 997.9 hPa WSW 8 km/h 22.5 km/h 93 % 0 mm WeatherDisplay:10.37 W/m2 OVC
05:29 -0.1 °C -1.1 °C 997.5 hPa WSW 8 km/h 29 km/h 93 % 0 mm WeatherDisplay:10.37 W/m2 OVC
05:34 0 °C -1 °C 997.5 hPa West 9.7 km/h 20.9 km/h 93 % 0 mm WeatherDisplay:10.37 W/m2 OVC
05:39 0.1 °C -0.9 °C 997.5 hPa West 3.2 km/h 20.9 km/h 93 % 0 mm WeatherDisplay:10.37 W/m2 OVC
05:44 0.2 °C -1 °C 997.5 hPa West 4.8 km/h 20.9 km/h 92 % 0 mm WeatherDisplay:10.37 W/m2 OVC
05:49 0.3 °C -0.9 °C 997.5 hPa West 8 km/h 14.5 km/h 92 % 0 mm WeatherDisplay:10.37 W/m2 OVC
05:54 0.3 °C -0.9 °C 997.5 hPa West 1.6 km/h 9.7 km/h 92 % 0 mm WeatherDisplay:10.37 W/m2 OVC
05:59 0.3 °C -0.8 °C 997.9 hPa West 3.2 km/h 17.7 km/h 92 % 0 mm WeatherDisplay:10.37 W/m2 OVC
06:04 0.4 °C -0.9 °C 997.9 hPa West 4.8 km/h 20.9 km/h 91 % 0 mm WeatherDisplay:10.37 W/m2 OVC
06:09 0.4 °C -0.8 °C 997.5 hPa West 8 km/h 14.5 km/h 91 % 0 mm WeatherDisplay:10.37 W/m2 OVC
06:14 0.4 °C -0.8 °C 997.9 hPa West 1.6 km/h 19.3 km/h 91 % 0 mm WeatherDisplay:10.37 W/m2 OVC
06:19 0.5 °C -0.8 °C 997.5 hPa West 3.2 km/h 19.3 km/h 91 % 0 mm WeatherDisplay:10.37 W/m2 OVC
06:24 0.5 °C -0.9 °C 997.9 hPa West 1.6 km/h 16.1 km/h 90 % 0 mm WeatherDisplay:10.37 W/m2 OVC
06:29 0.5 °C -0.9 °C 998.2 hPa West 3.2 km/h 20.9 km/h 90 % 0 mm WeatherDisplay:10.37 W/m2 OVC
06:34 0.6 °C -0.9 °C 997.9 hPa WNW 3.2 km/h 14.5 km/h 90 % 0 mm WeatherDisplay:10.37 W/m2 OVC
06:39 0.6 °C -0.9 °C 997.5 hPa West 4.8 km/h 19.3 km/h 90 % 0 mm WeatherDisplay:10.37 W/m2 OVC
06:44 0.6 °C -0.9 °C 998.2 hPa West 1.6 km/h 16.1 km/h 90 % 0 mm WeatherDisplay:10.37 W/m2 OVC
06:49 0.6 °C -0.8 °C 998.2 hPa West 3.2 km/h 19.3 km/h 90 % 0 mm WeatherDisplay:10.37 W/m2 OVC
06:54 0.6 °C -0.8 °C 998.2 hPa West 3.2 km/h 11.3 km/h 90 % 0 mm WeatherDisplay:10.37 W/m2 OVC
06:59 0.6 °C -0.8 °C 998.2 hPa West 1.6 km/h 12.9 km/h 90 % 0 mm WeatherDisplay:10.37 W/m2 OVC
07:04 0.6 °C -0.9 °C 998.5 hPa West 4.8 km/h 19.3 km/h 90 % 0 mm WeatherDisplay:10.37 W/m2 OVC
07:09 0.6 °C -0.8 °C 998.5 hPa WSW 3.2 km/h 22.5 km/h 90 % 0 mm WeatherDisplay:10.37 W/m2 OVC
07:14 0.6 °C -0.8 °C 998.5 hPa West 3.2 km/h 19.3 km/h 90 % 0 mm WeatherDisplay:10.37 W/m2 OVC
07:19 0.6 °C -0.8 °C 998.5 hPa WNW 11.3 km/h 22.5 km/h 90 % 0 mm WeatherDisplay:10.37 W/m2 OVC
07:24 0.7 °C -0.9 °C 998.9 hPa WNW 11.3 km/h 20.9 km/h 89 % 0 mm WeatherDisplay:10.37 W/m2 OVC
07:29 0.7 °C -0.9 °C 998.9 hPa NW 11.3 km/h 24.1 km/h 89 % 0 mm WeatherDisplay:10.37 W/m2 OVC
Juneau County Weather
Compliments of Weather Underground - 1.75 mb